Mountain Home, ID

11:08 AM MDT on September 19, 2014 (GMT -0600)
Mountain Home Air Force Base | Change Station
CLOSE
Current Station
Airport
Location: Mountain Home,
Elevation: 2995 ft
Nearby Weather Stations

Elev 2995 ft 43.04 °N, 115.87 °W | Updated 10 minutes ago

Clear
Clear
70 °F
Feels Like 70 °F
N
15
Wind Variable Wind from NW

Today
High -- | Low -- °F
--% Chance of Precip.
Yesterday
High -- | Low -- °F
Precip. -- in
7:26 AM 7:45 PM
Waning Crescent, 18% visible
Pressure 30.03 in
Visibility 10.0 miles
Clouds Clear
Dew Point 48 °F
Humidity 44%
Rainfall 0.00 in
Snow Depth 0 in , 0 in , 1 in
UV 4 out of 12
Pollen 7.90 out of 12
PM2.5 Moderate
Flu Activity Not available.
METAR KMUO 191658Z AUTO 31013KT 10SM CLR 21/09 A3009 RMK AO2 SLP169 T02140087 $

More Conditions Fewer Conditions

Pressure 30.03 in
Visibility 10.0 miles
Clouds Clear
Dew Point 48 °F
Humidity 44%
Rainfall 0.00 in
Snow Depth 0 in , 0 in , 1 in
UV 4 out of 12
Pollen 7.90 out of 12
PM2.5 Moderate
Flu Activity Not available.
METAR KMUO 191658Z AUTO 31013KT 10SM CLR 21/09 A3009 RMK AO2 SLP169 T02140087 $

More Conditions Fewer Conditions

10-Day Weather Forecast

Almanac

Astronomy

Sep. 19, 2014 Rise Set
Actual Time 7:26 AM MDT 7:45 PM MDT
Civil Twilight 6:58 AM MDT 8:13 PM MDT
Nautical Twilight 6:24 AM MDT 8:47 PM MDT
Astronomical Twilight 5:50 AM MDT 9:21 PM MDT
Moon 3:10 AM MDT 5:21 PM MDT
Length of Visible Light 13h 15m
Length of Day
12h 18m
Tomorrow will be 2m 55s shorter.
Waning Crescent, 18% of the Moon is Illuminated
Today
Waning Crescent
Sep 24
New
Oct 1
First Quarter
Oct 8
Full
Oct 15
Last Quarter

Today's Extremes

State Highs State Lows

Community

WunderPhotos

Upload Photos

1,754,655 photos uploaded!

Nearby

Air Quality

  Air Quality AQ Index Pollutant
Yesterday Moderate
PM10
Yesterday Good
OZONE
Current Moderate
PM2.5
Friday Moderate
PM2.5
Friday Good
OZONE
Saturday Moderate
PM2.5

Snow Depth

Station Depth Elevation
Lost-Wood Divide 0 in 7900 ft
Vienna Mine 0 in 8960 ft
Humboldt Gulch 1 in 4250 ft
Camas Creek Divide 0 in 5710 ft
White Elephant 0 in 7710 ft

Earthquake Activity

City Distance Mag. Time & Date
No recent earthquake activity has been reported nearby.
Minimum magnitude displayed is 2.5.

Coastal Water Temperatures

Place Temperature
No Stations Reporting

Nearby Weather Stations